createdAt,value
2019-01-25T00:01:54.737Z,59.67
2019-01-25T00:04:20.758Z,59.72
2019-01-25T00:06:46.675Z,59.95
2019-01-25T00:09:12.553Z,59.85
2019-01-25T00:11:38.469Z,60.21
2019-01-25T00:14:04.576Z,59.51
2019-01-25T00:16:30.658Z,59.81
2019-01-25T00:18:56.637Z,59.96
2019-01-25T00:21:22.749Z,60.22
2019-01-25T00:23:52.271Z,60.19
2019-01-25T00:26:18.406Z,60.42
2019-01-25T00:28:44.494Z,60.60
2019-01-25T00:31:10.369Z,60.37
2019-01-25T00:33:36.247Z,60.40
2019-01-25T00:36:02.261Z,60.37
2019-01-25T00:38:28.133Z,60.38
2019-01-25T00:40:54.019Z,60.16
2019-01-25T00:43:19.934Z,60.16
2019-01-25T00:45:45.902Z,60.00
2019-01-25T00:48:11.804Z,59.87
2019-01-25T00:50:37.702Z,59.61
2019-01-25T00:53:03.668Z,59.82
2019-01-25T00:55:29.541Z,59.84
2019-01-25T00:57:55.459Z,60.11
2019-01-25T01:00:23.592Z,60.37
2019-01-25T01:02:49.467Z,60.38
2019-01-25T01:05:15.553Z,60.24
2019-01-25T01:07:41.645Z,60.19
2019-01-25T01:10:13.980Z,60.14
2019-01-25T01:12:37.398Z,60.09
2019-01-25T01:15:06.960Z,60.10
2019-01-25T01:17:32.969Z,60.21
2019-01-25T01:20:00.231Z,60.16
2019-01-25T01:22:26.198Z,60.21
2019-01-25T01:24:52.176Z,59.99
2019-01-25T01:27:18.143Z,60.19
2019-01-25T01:29:44.070Z,60.37
2019-01-25T01:32:10.066Z,60.30
2019-01-25T01:34:35.971Z,60.10
2019-01-25T01:37:01.901Z,59.90
2019-01-25T01:39:27.794Z,59.34
2019-01-25T01:41:53.666Z,58.87
2019-01-25T01:44:19.554Z,59.27
2019-01-25T01:46:45.423Z,59.28
2019-01-25T01:49:11.436Z,59.15
2019-01-25T01:51:37.360Z,58.79
2019-01-25T01:54:03.315Z,58.85
2019-01-25T01:56:29.170Z,59.00
2019-01-25T01:58:55.046Z,59.17
2019-01-25T02:01:20.985Z,59.06
2019-01-25T02:03:46.848Z,59.07
2019-01-25T02:06:12.746Z,59.14
2019-01-25T02:08:38.713Z,59.17
2019-01-25T02:11:04.603Z,58.93
2019-01-25T02:13:30.477Z,58.66
2019-01-25T02:15:56.514Z,58.71
2019-01-25T02:18:22.526Z,58.56
2019-01-25T02:20:48.405Z,58.64
2019-01-25T02:23:14.300Z,59.10
2019-01-25T02:25:40.236Z,59.57
2019-01-25T02:28:06.122Z,59.72
2019-01-25T02:30:32.008Z,59.85
2019-01-25T02:32:58.015Z,60.04
2019-01-25T02:35:23.894Z,60.13
2019-01-25T02:37:49.778Z,59.93
2019-01-25T02:40:20.590Z,59.81
2019-01-25T02:42:46.699Z,59.51
2019-01-25T02:45:12.648Z,59.59
2019-01-25T02:47:38.518Z,59.70
2019-01-25T02:50:13.735Z,59.84
2019-01-25T02:52:39.625Z,59.71
2019-01-25T02:55:07.426Z,59.58
2019-01-25T02:57:33.293Z,59.54
2019-01-25T02:59:59.269Z,59.58
2019-01-25T03:02:25.140Z,59.73
2019-01-25T03:04:51.086Z,59.93
2019-01-25T03:07:16.981Z,59.61
2019-01-25T03:09:42.974Z,59.50
2019-01-25T03:12:10.160Z,59.32
2019-01-25T03:14:36.142Z,58.96
2019-01-25T03:17:02.040Z,58.95
2019-01-25T03:19:27.927Z,58.95
2019-01-25T03:21:53.838Z,58.82
2019-01-25T03:24:19.729Z,58.43
2019-01-25T03:26:45.776Z,58.72
2019-01-25T03:29:11.824Z,58.67
2019-01-25T03:31:38.148Z,58.70
2019-01-25T03:34:04.108Z,58.53
2019-01-25T03:36:30.009Z,58.60
2019-01-25T03:38:55.861Z,59.01
2019-01-25T03:41:21.753Z,58.75
2019-01-25T03:43:47.938Z,58.74
2019-01-25T03:46:13.823Z,58.79
2019-01-25T03:48:39.746Z,59.02
2019-01-25T03:51:05.594Z,59.46
2019-01-25T03:53:31.546Z,59.09
2019-01-25T03:55:57.409Z,59.21
2019-01-25T03:58:23.310Z,59.49
2019-01-25T04:00:49.256Z,59.27
2019-01-25T04:03:15.487Z,58.90
2019-01-25T04:05:41.358Z,58.43
2019-01-25T04:08:07.301Z,58.63
2019-01-25T04:10:34.312Z,58.57
2019-01-25T04:13:00.180Z,57.98
2019-01-25T04:15:29.211Z,58.04
2019-01-25T04:17:55.148Z,58.25
2019-01-25T04:20:22.069Z,58.70
2019-01-25T04:22:48.020Z,58.75
2019-01-25T04:25:16.037Z,58.16
2019-01-25T04:27:41.931Z,58.44
2019-01-25T04:30:11.294Z,58.72
2019-01-25T04:32:37.166Z,58.18
2019-01-25T04:35:05.295Z,58.36
2019-01-25T04:37:33.126Z,57.64
2019-01-25T04:39:58.996Z,57.71
2019-01-25T04:42:24.895Z,58.09
2019-01-25T04:44:50.985Z,58.56
2019-01-25T04:47:18.797Z,58.96
2019-01-25T04:49:44.692Z,58.87
2019-01-25T04:52:11.077Z,59.03
2019-01-25T04:54:36.996Z,58.62
2019-01-25T04:57:02.936Z,58.47
2019-01-25T04:59:28.905Z,58.73
2019-01-25T05:01:54.834Z,58.65
2019-01-25T05:04:20.698Z,58.31
2019-01-25T05:06:46.586Z,58.89
2019-01-25T05:09:12.611Z,58.88
2019-01-25T05:11:38.469Z,58.79
2019-01-25T05:14:04.340Z,57.69
2019-01-25T05:16:30.258Z,57.62
2019-01-25T05:18:56.132Z,57.79
2019-01-25T05:21:22.038Z,57.86
2019-01-25T05:23:48.102Z,57.95
2019-01-25T05:26:14.007Z,57.10
2019-01-25T05:28:39.863Z,57.12
2019-01-25T05:31:06.124Z,56.95
2019-01-25T05:33:32.031Z,57.12
2019-01-25T05:35:57.904Z,56.87
2019-01-25T05:38:23.886Z,56.91
2019-01-25T05:40:49.771Z,57.02
2019-01-25T05:43:15.667Z,57.10
2019-01-25T05:45:43.332Z,56.73
2019-01-25T05:48:10.609Z,56.73
2019-01-25T05:50:36.796Z,56.40
2019-01-25T05:53:02.697Z,56.59
2019-01-25T05:55:28.624Z,56.16
2019-01-25T05:57:59.076Z,56.46
2019-01-25T06:00:33.242Z,56.46
2019-01-25T06:03:04.541Z,56.59
2019-01-25T06:05:30.506Z,56.58
2019-01-25T06:07:56.506Z,56.43
2019-01-25T06:10:24.335Z,56.57
2019-01-25T06:12:54.780Z,56.77
2019-01-25T06:15:20.790Z,57.10
2019-01-25T06:17:46.869Z,56.94
2019-01-25T06:20:14.687Z,56.56
2019-01-25T06:22:40.633Z,56.78
2019-01-25T06:25:07.106Z,57.02
2019-01-25T06:27:39.413Z,56.81
2019-01-25T06:30:12.876Z,56.47
2019-01-25T06:32:38.974Z,56.15
2019-01-25T06:35:06.903Z,56.54
2019-01-25T06:37:34.989Z,55.89
2019-01-25T06:40:00.907Z,55.35
2019-01-25T06:42:26.794Z,55.99
2019-01-25T06:44:52.648Z,55.55
2019-01-25T06:47:18.535Z,55.24
2019-01-25T06:49:44.571Z,55.82
2019-01-25T06:52:10.456Z,56.09
2019-01-25T06:54:36.364Z,57.95
2019-01-25T06:57:04.184Z,56.30
2019-01-25T06:59:31.997Z,55.75
2019-01-25T07:01:59.910Z,55.45
2019-01-25T07:04:25.828Z,55.02
2019-01-25T07:06:51.740Z,54.56
2019-01-25T07:09:17.608Z,55.30
2019-01-25T07:11:43.710Z,54.39
2019-01-25T07:14:09.640Z,54.50
2019-01-25T07:16:35.542Z,54.64
2019-01-25T07:19:01.438Z,54.48
2019-01-25T07:21:27.384Z,54.14
2019-01-25T07:23:56.012Z,54.13
2019-01-25T07:26:21.938Z,54.79
2019-01-25T07:28:47.840Z,54.07
2019-01-25T07:31:13.827Z,54.33
2019-01-25T07:33:42.983Z,54.75
2019-01-25T07:36:08.881Z,54.75
2019-01-25T07:38:34.813Z,54.68
2019-01-25T07:41:00.783Z,54.76
2019-01-25T07:43:26.735Z,54.79
2019-01-25T07:45:52.588Z,54.60
2019-01-25T07:48:18.635Z,54.89
2019-01-25T07:50:44.640Z,54.71
2019-01-25T07:53:10.539Z,54.81
2019-01-25T07:55:36.420Z,54.40
2019-01-25T07:58:02.386Z,54.48
2019-01-25T08:00:28.267Z,53.90
2019-01-25T08:02:54.129Z,53.93
2019-01-25T08:05:20.017Z,53.53
2019-01-25T08:07:46.007Z,53.16
2019-01-25T08:10:18.771Z,52.93
2019-01-25T08:12:44.891Z,52.52
2019-01-25T08:15:14.493Z,52.63
2019-01-25T08:17:40.609Z,52.49
2019-01-25T08:20:09.737Z,51.60
2019-01-25T08:22:35.579Z,51.16
2019-01-25T08:25:01.640Z,50.93
2019-01-25T08:27:27.530Z,50.49
2019-01-25T08:29:53.476Z,50.26
2019-01-25T08:32:19.420Z,49.48
2019-01-25T08:34:45.326Z,49.22
2019-01-25T08:37:11.188Z,48.89
2019-01-25T08:39:37.228Z,48.77
2019-01-25T08:42:03.081Z,48.71
2019-01-25T08:44:28.971Z,48.48
2019-01-25T08:46:55.070Z,48.73
2019-01-25T08:49:20.970Z,48.83
2019-01-25T08:51:46.834Z,48.95
2019-01-25T08:54:14.226Z,49.43
2019-01-25T08:56:40.319Z,49.41
2019-01-25T08:59:06.202Z,48.76
2019-01-25T09:01:32.137Z,48.07
2019-01-25T09:03:58.162Z,47.87
2019-01-25T09:06:24.031Z,47.78
2019-01-25T09:08:49.918Z,47.80
2019-01-25T09:11:15.906Z,47.37
2019-01-25T09:13:41.779Z,47.25
2019-01-25T09:16:07.785Z,46.73
2019-01-25T09:18:33.839Z,46.52
2019-01-25T09:20:59.900Z,46.12
2019-01-25T09:23:25.877Z,45.31
2019-01-25T09:25:51.805Z,45.31
2019-01-25T09:28:17.739Z,44.87
2019-01-25T09:30:43.610Z,43.99
2019-01-25T09:33:09.492Z,43.29
2019-01-25T09:35:35.447Z,43.15
2019-01-25T09:38:01.404Z,43.30
2019-01-25T09:40:27.889Z,43.01
2019-01-25T09:42:54.035Z,42.78
2019-01-25T09:45:20.415Z,42.52
2019-01-25T09:47:46.298Z,42.31
2019-01-25T09:50:17.234Z,42.31
2019-01-25T09:52:43.343Z,42.13
2019-01-25T09:55:14.678Z,41.94
2019-01-25T09:57:40.654Z,40.98
2019-01-25T10:00:19.073Z,41.63
2019-01-25T10:02:44.953Z,41.50
2019-01-25T10:05:10.817Z,41.90
2019-01-25T10:07:36.714Z,42.09
2019-01-25T10:10:05.008Z,41.93
2019-01-25T10:12:36.068Z,40.68
2019-01-25T10:14:58.774Z,40.96
2019-01-25T10:17:24.650Z,40.81
2019-01-25T10:19:50.551Z,40.48
2019-01-25T10:22:16.450Z,40.97
2019-01-25T10:24:43.432Z,40.70
2019-01-25T10:27:09.295Z,40.86
2019-01-25T10:29:35.196Z,40.80
2019-01-25T10:32:01.089Z,40.38
2019-01-25T10:34:27.040Z,39.05
2019-01-25T10:36:52.895Z,39.50
2019-01-25T10:39:18.800Z,39.47
2019-01-25T10:41:44.684Z,39.39
2019-01-25T10:44:10.516Z,39.25
2019-01-25T10:46:36.440Z,38.99
2019-01-25T10:49:02.367Z,39.25
2019-01-25T10:51:28.293Z,39.01
2019-01-25T10:53:54.190Z,39.16
2019-01-25T10:56:20.086Z,38.95
2019-01-25T10:58:45.986Z,38.79
2019-01-25T11:01:13.206Z,38.55
2019-01-25T11:03:39.076Z,37.86
2019-01-25T11:06:04.948Z,37.70
2019-01-25T11:08:30.866Z,37.06
2019-01-25T11:10:57.673Z,36.97
2019-01-25T11:13:23.552Z,35.93
2019-01-25T11:15:49.537Z,35.32
2019-01-25T11:18:15.843Z,34.74
2019-01-25T11:20:41.716Z,35.51
2019-01-25T11:23:07.615Z,35.02
2019-01-25T11:25:39.060Z,35.46
2019-01-25T11:28:05.051Z,35.46
2019-01-25T11:30:30.938Z,35.75
2019-01-25T11:32:56.824Z,35.90
2019-01-25T11:35:22.735Z,36.48
2019-01-25T11:37:52.667Z,36.45
2019-01-25T11:40:27.062Z,37.03
2019-01-25T11:42:53.791Z,37.26
2019-01-25T11:45:19.831Z,37.49
2019-01-25T11:47:45.780Z,37.54
2019-01-25T11:50:15.083Z,37.36
2019-01-25T11:52:41.026Z,37.59
2019-01-25T11:55:08.064Z,37.28
2019-01-25T11:57:33.971Z,38.23
2019-01-25T11:59:59.805Z,37.86
2019-01-25T12:02:25.813Z,37.23
2019-01-25T12:04:51.722Z,37.79
2019-01-25T12:07:17.624Z,38.46
2019-01-25T12:09:43.511Z,38.63
2019-01-25T12:12:09.520Z,38.30
2019-01-25T12:14:35.467Z,38.12
2019-01-25T12:17:01.324Z,38.39
2019-01-25T12:19:27.203Z,38.10
2019-01-25T12:21:53.107Z,37.22
2019-01-25T12:24:19.057Z,37.19
2019-01-25T12:26:45.107Z,36.98
2019-01-25T12:29:11.214Z,36.87
2019-01-25T12:31:37.120Z,36.70
2019-01-25T12:34:03.145Z,37.14
2019-01-25T12:36:28.980Z,37.21
2019-01-25T12:38:54.977Z,37.16
2019-01-25T12:41:20.831Z,37.08
2019-01-25T12:43:46.836Z,36.75
2019-01-25T12:46:12.893Z,36.36
2019-01-25T12:48:38.796Z,36.59
2019-01-25T12:51:08.597Z,36.89
2019-01-25T12:53:34.510Z,36.64
2019-01-25T12:56:00.388Z,36.69
2019-01-25T12:58:26.275Z,36.57
2019-01-25T13:00:52.175Z,36.53
2019-01-25T13:03:18.217Z,32.22
2019-01-25T13:05:45.636Z,27.70
2019-01-25T13:08:11.660Z,26.12
2019-01-25T13:10:37.578Z,26.76
2019-01-25T13:13:03.539Z,24.75
2019-01-25T13:15:29.427Z,26.95
2019-01-25T13:17:55.398Z,25.36
2019-01-25T13:20:28.786Z,26.22
2019-01-25T13:22:54.680Z,24.32
2019-01-25T13:25:20.644Z,23.68
2019-01-25T13:27:46.630Z,24.88
2019-01-25T13:30:21.612Z,25.64
2019-01-25T13:32:47.532Z,27.26
2019-01-25T13:35:13.553Z,29.13
2019-01-25T13:37:39.431Z,32.69
2019-01-25T13:40:08.888Z,34.60
2019-01-25T13:42:34.761Z,35.21
2019-01-25T13:45:00.666Z,34.74
2019-01-25T13:47:26.573Z,34.91
2019-01-25T13:49:52.538Z,35.51
2019-01-25T13:52:18.425Z,36.34
2019-01-25T13:54:44.344Z,36.56
2019-01-25T13:57:10.291Z,35.49
2019-01-25T13:59:36.174Z,35.44
2019-01-25T14:02:02.061Z,35.82
2019-01-25T14:04:27.988Z,36.47
2019-01-25T14:06:53.883Z,36.51
2019-01-25T14:09:19.869Z,35.70
2019-01-25T14:11:45.849Z,33.31
2019-01-25T14:14:11.892Z,35.78
2019-01-25T14:16:37.718Z,36.45
2019-01-25T14:19:03.694Z,36.67
2019-01-25T14:21:29.615Z,36.59
2019-01-25T14:23:56.458Z,36.68
2019-01-25T14:26:22.331Z,36.91
2019-01-25T14:28:48.278Z,36.34
2019-01-25T14:31:14.188Z,36.34
2019-01-25T14:33:40.097Z,36.45
2019-01-25T14:36:06.008Z,36.66
2019-01-25T14:38:32.095Z,36.45
2019-01-25T14:40:57.964Z,35.23
2019-01-25T14:43:23.858Z,36.64
2019-01-25T14:45:49.851Z,36.92
2019-01-25T14:48:15.762Z,36.68
2019-01-25T14:50:41.620Z,36.75
2019-01-25T14:53:07.526Z,36.36
2019-01-25T14:55:36.010Z,34.82
2019-01-25T14:58:01.991Z,35.99
2019-01-25T15:00:27.864Z,36.36
2019-01-25T15:02:53.878Z,36.38
2019-01-25T15:05:19.792Z,36.93
2019-01-25T15:07:45.951Z,36.93
2019-01-25T15:10:16.760Z,37.13
2019-01-25T15:12:43.017Z,37.21
2019-01-25T15:15:11.030Z,37.88
2019-01-25T15:17:36.916Z,37.41
2019-01-25T15:20:06.833Z,37.36
2019-01-25T15:22:32.746Z,37.70
2019-01-25T15:24:58.785Z,37.67
2019-01-25T15:27:24.687Z,37.85
2019-01-25T15:29:50.622Z,37.90
2019-01-25T15:32:16.604Z,37.93
2019-01-25T15:34:42.606Z,38.35
2019-01-25T15:37:08.675Z,38.44
2019-01-25T15:39:34.688Z,38.71
2019-01-25T15:42:00.630Z,38.88
2019-01-25T15:44:26.521Z,39.09
2019-01-25T15:46:52.380Z,39.18
2019-01-25T15:49:18.315Z,39.25
2019-01-25T15:51:44.292Z,39.13
2019-01-25T15:54:10.176Z,39.70
2019-01-25T15:56:36.302Z,39.79
2019-01-25T15:59:02.193Z,40.00
2019-01-25T16:01:28.095Z,40.41
2019-01-25T16:03:54.035Z,40.82
2019-01-25T16:06:19.928Z,40.98
2019-01-25T16:08:45.794Z,41.03
2019-01-25T16:11:11.958Z,41.62
2019-01-25T16:13:37.971Z,42.22
2019-01-25T16:16:03.895Z,42.81
2019-01-25T16:18:29.745Z,43.37
2019-01-25T16:20:55.642Z,43.72
2019-01-25T16:23:21.525Z,43.86
2019-01-25T16:25:47.398Z,44.06
2019-01-25T16:28:13.407Z,44.24
2019-01-25T16:30:39.391Z,44.83
2019-01-25T16:33:05.258Z,45.50
2019-01-25T16:35:31.164Z,46.58
2019-01-25T16:37:57.132Z,46.91
2019-01-25T16:40:25.708Z,45.68
2019-01-25T16:42:51.682Z,46.93
2019-01-25T16:45:21.003Z,46.72
2019-01-25T16:47:47.047Z,47.07
2019-01-25T16:50:12.912Z,47.56
2019-01-25T16:52:38.849Z,47.86
2019-01-25T16:55:07.948Z,48.08
2019-01-25T16:57:33.821Z,48.90
2019-01-25T16:59:59.724Z,47.67
2019-01-25T17:02:25.731Z,47.45
2019-01-25T17:04:51.614Z,48.05
2019-01-25T17:07:17.484Z,47.92
2019-01-25T17:09:43.506Z,48.60
2019-01-25T17:12:09.382Z,49.01
2019-01-25T17:14:35.358Z,49.14
2019-01-25T17:17:01.200Z,49.58
2019-01-25T17:19:27.094Z,48.86
2019-01-25T17:21:52.976Z,49.20
2019-01-25T17:24:18.836Z,49.84
2019-01-25T17:26:44.717Z,50.27
2019-01-25T17:29:10.606Z,49.89
2019-01-25T17:31:36.492Z,49.78
2019-01-25T17:34:02.354Z,49.71
2019-01-25T17:36:28.367Z,50.02
2019-01-25T17:38:54.178Z,50.43
2019-01-25T17:41:20.162Z,50.47
2019-01-25T17:43:50.013Z,50.20
2019-01-25T17:46:15.932Z,50.81
2019-01-25T17:48:41.834Z,50.64
2019-01-25T17:51:07.735Z,50.78
2019-01-25T17:53:33.630Z,50.56
2019-01-25T17:55:59.639Z,50.56
2019-01-25T17:58:25.743Z,50.53
2019-01-25T18:00:53.292Z,51.46
2019-01-25T18:03:19.176Z,51.46
2019-01-25T18:05:45.034Z,52.02
2019-01-25T18:08:10.930Z,52.22
2019-01-25T18:10:36.778Z,52.02
2019-01-25T18:13:02.805Z,52.09
2019-01-25T18:15:28.802Z,52.46
2019-01-25T18:17:54.721Z,52.46
2019-01-25T18:20:21.925Z,52.59
2019-01-25T18:22:47.811Z,52.94
2019-01-25T18:25:23.119Z,52.86
2019-01-25T18:27:52.922Z,53.32
2019-01-25T18:30:26.174Z,53.78
2019-01-25T18:32:52.093Z,53.91
2019-01-25T18:35:18.257Z,54.04
2019-01-25T18:37:44.117Z,54.27
2019-01-25T18:40:10.858Z,54.04
2019-01-25T18:42:37.198Z,54.17
2019-01-25T18:45:06.337Z,54.13
2019-01-25T18:47:32.254Z,54.07
2019-01-25T18:49:58.116Z,54.46
2019-01-25T18:52:24.021Z,54.73
2019-01-25T18:54:49.967Z,54.55
2019-01-25T18:57:15.834Z,54.74
2019-01-25T18:59:41.736Z,55.04
2019-01-25T19:02:07.749Z,55.50
2019-01-25T19:04:33.750Z,55.50
2019-01-25T19:06:59.637Z,55.00
2019-01-25T19:09:25.567Z,54.99
2019-01-25T19:11:51.568Z,55.01
2019-01-25T19:14:17.445Z,54.76
2019-01-25T19:16:43.437Z,54.37
2019-01-25T19:19:09.397Z,54.57
2019-01-25T19:21:35.276Z,54.78
2019-01-25T19:24:01.167Z,54.84
2019-01-25T19:26:27.442Z,55.05
2019-01-25T19:28:53.820Z,55.17
2019-01-25T19:31:20.016Z,55.58
2019-01-25T19:33:45.985Z,55.78
2019-01-25T19:36:11.856Z,55.95
2019-01-25T19:38:37.931Z,55.73
2019-01-25T19:41:03.832Z,55.45
2019-01-25T19:43:29.750Z,53.90
2019-01-25T19:45:55.591Z,54.15
2019-01-25T19:48:21.529Z,54.87
2019-01-25T19:50:47.738Z,54.65
2019-01-25T19:53:13.645Z,54.99
2019-01-25T19:55:39.622Z,55.45
2019-01-25T19:58:08.795Z,56.10
2019-01-25T20:00:40.693Z,56.66
2019-01-25T20:03:06.612Z,57.10
2019-01-25T20:05:32.493Z,56.90
2019-01-25T20:07:58.465Z,57.16
2019-01-25T20:10:24.348Z,57.27
2019-01-25T20:12:50.331Z,56.37
2019-01-25T20:15:19.483Z,55.90
2019-01-25T20:17:45.657Z,55.37
2019-01-25T20:20:24.347Z,55.38
2019-01-25T20:22:50.209Z,55.28
2019-01-25T20:25:16.091Z,55.50
2019-01-25T20:27:42.007Z,55.71
2019-01-25T20:30:17.484Z,56.12
2019-01-25T20:32:43.385Z,56.15
2019-01-25T20:35:12.797Z,56.60
2019-01-25T20:37:38.844Z,57.10
2019-01-25T20:40:08.570Z,55.99
2019-01-25T20:42:34.434Z,55.76
2019-01-25T20:45:00.355Z,55.68
2019-01-25T20:47:26.364Z,55.80
2019-01-25T20:49:52.260Z,55.65
2019-01-25T20:52:18.143Z,55.62
2019-01-25T20:54:44.061Z,55.66
2019-01-25T20:57:09.923Z,55.67
2019-01-25T20:59:36.168Z,55.70
2019-01-25T21:02:02.064Z,55.73
2019-01-25T21:04:27.932Z,56.05
2019-01-25T21:06:53.823Z,56.24
2019-01-25T21:09:19.716Z,56.24
2019-01-25T21:11:45.580Z,56.39
2019-01-25T21:14:11.457Z,55.93
2019-01-25T21:16:37.370Z,56.16
2019-01-25T21:19:03.251Z,55.94
2019-01-25T21:21:30.794Z,55.82
2019-01-25T21:23:56.679Z,55.90
2019-01-25T21:26:22.531Z,56.56
2019-01-25T21:28:48.496Z,55.94
2019-01-25T21:31:14.368Z,55.26
2019-01-25T21:33:40.226Z,54.96
2019-01-25T21:36:06.121Z,54.81
2019-01-25T21:38:32.059Z,54.90
2019-01-25T21:40:57.934Z,55.18
2019-01-25T21:43:23.815Z,55.91
2019-01-25T21:45:49.800Z,55.91
2019-01-25T21:48:15.773Z,55.65
2019-01-25T21:50:42.339Z,55.77
2019-01-25T21:53:08.279Z,55.94
2019-01-25T21:55:34.146Z,55.93
2019-01-25T21:58:05.433Z,55.67
2019-01-25T22:00:30.936Z,55.62
2019-01-25T22:02:56.819Z,55.63
2019-01-25T22:05:23.592Z,55.34
2019-01-25T22:07:49.517Z,55.18
2019-01-25T22:10:21.592Z,55.00
2019-01-25T22:12:47.538Z,54.42
2019-01-25T22:15:15.607Z,54.31
2019-01-25T22:17:41.622Z,54.25
2019-01-25T22:20:20.151Z,53.87
2019-01-25T22:22:46.113Z,54.12
2019-01-25T22:25:12.050Z,54.36
2019-01-25T22:27:37.957Z,54.45
2019-01-25T22:30:10.392Z,54.26
2019-01-25T22:32:36.238Z,54.69
2019-01-25T22:35:02.741Z,54.34
2019-01-25T22:37:28.606Z,53.67
2019-01-25T22:39:54.494Z,53.71
2019-01-25T22:42:20.445Z,53.99
2019-01-25T22:44:46.316Z,53.44
2019-01-25T22:47:12.241Z,53.20
2019-01-25T22:49:38.117Z,53.44
2019-01-25T22:52:04.140Z,54.28
2019-01-25T22:54:30.036Z,54.57
2019-01-25T22:56:55.939Z,55.07
2019-01-25T22:59:22.551Z,54.97
2019-01-25T23:01:48.438Z,54.49
2019-01-25T23:04:29.752Z,54.28
2019-01-25T23:06:55.736Z,53.91
2019-01-25T23:09:27.534Z,53.70
2019-01-25T23:11:53.471Z,53.88
2019-01-25T23:14:19.344Z,54.05
2019-01-25T23:16:45.210Z,54.23
2019-01-25T23:19:11.110Z,54.62
2019-01-25T23:21:36.962Z,54.98
2019-01-25T23:24:03.141Z,54.89
2019-01-25T23:26:29.100Z,54.25
2019-01-25T23:28:54.969Z,53.67
2019-01-25T23:31:20.837Z,53.35
2019-01-25T23:33:46.718Z,52.54
2019-01-25T23:36:12.578Z,52.83
2019-01-25T23:38:38.509Z,52.76
2019-01-25T23:41:04.360Z,52.95
2019-01-25T23:43:30.226Z,52.49
2019-01-25T23:45:56.215Z,52.81
2019-01-25T23:48:22.143Z,52.35
2019-01-25T23:50:48.060Z,52.58
2019-01-25T23:53:14.049Z,52.90
2019-01-25T23:55:39.937Z,53.09
2019-01-25T23:58:05.813Z,53.28
